sensor_id;sensor_type;location;lat;lon;timestamp;temperature;humidity
32524;DHT22;18965;52.242;20.886;2023-06-05T00:01:36;13.00;57.10
32524;DHT22;18965;52.242;20.886;2023-06-05T00:04:02;13.00;57.20
32524;DHT22;18965;52.242;20.886;2023-06-05T00:06:29;12.90;57.20
32524;DHT22;18965;52.242;20.886;2023-06-05T00:08:54;12.90;57.40
32524;DHT22;18965;52.242;20.886;2023-06-05T00:11:20;12.90;57.50
32524;DHT22;18965;52.242;20.886;2023-06-05T00:13:47;12.80;57.60
32524;DHT22;18965;52.242;20.886;2023-06-05T00:16:13;12.80;57.70
32524;DHT22;18965;52.242;20.886;2023-06-05T00:18:39;12.80;57.70
32524;DHT22;18965;52.242;20.886;2023-06-05T00:21:05;12.80;57.80
32524;DHT22;18965;52.242;20.886;2023-06-05T00:23:31;12.80;58.00
32524;DHT22;18965;52.242;20.886;2023-06-05T00:25:57;12.70;58.00
32524;DHT22;18965;52.242;20.886;2023-06-05T00:28:23;12.70;58.10
32524;DHT22;18965;52.242;20.886;2023-06-05T00:30:49;12.70;58.10
32524;DHT22;18965;52.242;20.886;2023-06-05T00:33:16;12.70;58.10
32524;DHT22;18965;52.242;20.886;2023-06-05T00:35:42;12.60;58.10
32524;DHT22;18965;52.242;20.886;2023-06-05T00:38:08;12.60;58.10
32524;DHT22;18965;52.242;20.886;2023-06-05T00:40:33;12.60;58.20
32524;DHT22;18965;52.242;20.886;2023-06-05T00:42:59;12.60;58.30
32524;DHT22;18965;52.242;20.886;2023-06-05T00:45:25;12.60;58.30
32524;DHT22;18965;52.242;20.886;2023-06-05T00:47:51;12.60;58.40
32524;DHT22;18965;52.242;20.886;2023-06-05T00:50:17;12.50;58.40
32524;DHT22;18965;52.242;20.886;2023-06-05T00:52:47;12.50;58.50
32524;DHT22;18965;52.242;20.886;2023-06-05T00:55:13;12.50;58.50
32524;DHT22;18965;52.242;20.886;2023-06-05T00:57:39;12.50;58.60
32524;DHT22;18965;52.242;20.886;2023-06-05T01:00:08;12.40;58.70
32524;DHT22;18965;52.242;20.886;2023-06-05T01:02:38;12.40;58.90
32524;DHT22;18965;52.242;20.886;2023-06-05T01:05:05;12.40;58.90
32524;DHT22;18965;52.242;20.886;2023-06-05T01:07:32;12.30;59.00
32524;DHT22;18965;52.242;20.886;2023-06-05T01:10:02;12.30;59.10
32524;DHT22;18965;52.242;20.886;2023-06-05T01:15:19;12.20;59.30
32524;DHT22;18965;52.242;20.886;2023-06-05T01:17:57;12.20;59.40
32524;DHT22;18965;52.242;20.886;2023-06-05T01:20:35;12.20;59.50
32524;DHT22;18965;52.242;20.886;2023-06-05T01:23:08;12.20;59.60
32524;DHT22;18965;52.242;20.886;2023-06-05T01:25:34;12.20;59.70
32524;DHT22;18965;52.242;20.886;2023-06-05T01:28:17;12.10;59.60
32524;DHT22;18965;52.242;20.886;2023-06-05T01:33:31;12.10;59.80
32524;DHT22;18965;52.242;20.886;2023-06-05T01:36:08;12.10;60.00
32524;DHT22;18965;52.242;20.886;2023-06-05T01:38:35;12.10;60.00
32524;DHT22;18965;52.242;20.886;2023-06-05T01:41:03;12.00;60.00
32524;DHT22;18965;52.242;20.886;2023-06-05T01:43:30;12.00;60.20
32524;DHT22;18965;52.242;20.886;2023-06-05T01:45:56;12.00;60.30
32524;DHT22;18965;52.242;20.886;2023-06-05T01:48:27;11.90;60.50
32524;DHT22;18965;52.242;20.886;2023-06-05T01:50:59;11.90;60.50
32524;DHT22;18965;52.242;20.886;2023-06-05T01:53:26;11.90;60.70
32524;DHT22;18965;52.242;20.886;2023-06-05T01:55:53;11.90;60.70
32524;DHT22;18965;52.242;20.886;2023-06-05T01:58:22;11.90;60.80
32524;DHT22;18965;52.242;20.886;2023-06-05T02:00:48;11.80;60.80
32524;DHT22;18965;52.242;20.886;2023-06-05T02:03:16;11.80;60.90
32524;DHT22;18965;52.242;20.886;2023-06-05T02:05:42;11.80;60.90
32524;DHT22;18965;52.242;20.886;2023-06-05T02:08:08;11.80;61.00
32524;DHT22;18965;52.242;20.886;2023-06-05T02:10:35;11.80;61.00
32524;DHT22;18965;52.242;20.886;2023-06-05T02:13:01;11.70;61.10
32524;DHT22;18965;52.242;20.886;2023-06-05T02:15:26;11.70;61.20
32524;DHT22;18965;52.242;20.886;2023-06-05T02:17:57;11.70;61.30
32524;DHT22;18965;52.242;20.886;2023-06-05T02:20:26;11.70;61.40
32524;DHT22;18965;52.242;20.886;2023-06-05T02:22:52;11.70;61.60
32524;DHT22;18965;52.242;20.886;2023-06-05T02:25:23;11.70;61.60
32524;DHT22;18965;52.242;20.886;2023-06-05T02:27:53;11.60;61.60
32524;DHT22;18965;52.242;20.886;2023-06-05T02:30:19;11.60;61.70
32524;DHT22;18965;52.242;20.886;2023-06-05T02:32:45;11.60;61.80
32524;DHT22;18965;52.242;20.886;2023-06-05T02:35:12;11.60;61.90
32524;DHT22;18965;52.242;20.886;2023-06-05T02:37:39;11.60;62.00
32524;DHT22;18965;52.242;20.886;2023-06-05T02:40:12;11.60;62.10
32524;DHT22;18965;52.242;20.886;2023-06-05T02:42:38;11.50;62.20
32524;DHT22;18965;52.242;20.886;2023-06-05T02:45:05;11.50;62.20
32524;DHT22;18965;52.242;20.886;2023-06-05T02:47:31;11.50;62.30
32524;DHT22;18965;52.242;20.886;2023-06-05T02:50:00;11.50;62.40
32524;DHT22;18965;52.242;20.886;2023-06-05T02:52:26;11.50;62.50
32524;DHT22;18965;52.242;20.886;2023-06-05T02:54:53;11.50;62.60
32524;DHT22;18965;52.242;20.886;2023-06-05T02:57:19;11.50;62.70
32524;DHT22;18965;52.242;20.886;2023-06-05T02:59:45;11.50;62.80
32524;DHT22;18965;52.242;20.886;2023-06-05T03:02:11;11.50;62.90
32524;DHT22;18965;52.242;20.886;2023-06-05T03:04:37;11.50;63.00
32524;DHT22;18965;52.242;20.886;2023-06-05T03:07:06;11.50;63.10
32524;DHT22;18965;52.242;20.886;2023-06-05T03:09:34;11.50;63.20
32524;DHT22;18965;52.242;20.886;2023-06-05T03:11:59;11.60;63.40
32524;DHT22;18965;52.242;20.886;2023-06-05T03:14:25;11.60;63.40
32524;DHT22;18965;52.242;20.886;2023-06-05T03:16:56;11.60;63.30
32524;DHT22;18965;52.242;20.886;2023-06-05T03:19:24;11.70;63.40
32524;DHT22;18965;52.242;20.886;2023-06-05T03:21:50;11.70;63.50
32524;DHT22;18965;52.242;20.886;2023-06-05T03:24:16;11.70;63.60
32524;DHT22;18965;52.242;20.886;2023-06-05T03:26:43;11.80;63.80
32524;DHT22;18965;52.242;20.886;2023-06-05T03:29:10;11.90;64.00
32524;DHT22;18965;52.242;20.886;2023-06-05T03:31:36;11.90;64.00
32524;DHT22;18965;52.242;20.886;2023-06-05T03:34:02;11.90;64.00
32524;DHT22;18965;52.242;20.886;2023-06-05T03:36:29;12.00;64.20
32524;DHT22;18965;52.242;20.886;2023-06-05T03:38:56;12.10;64.30
32524;DHT22;18965;52.242;20.886;2023-06-05T03:41:25;12.20;64.30
32524;DHT22;18965;52.242;20.886;2023-06-05T03:43:51;12.30;64.20
32524;DHT22;18965;52.242;20.886;2023-06-05T03:46:17;12.30;64.30
32524;DHT22;18965;52.242;20.886;2023-06-05T03:48:46;12.40;65.10
32524;DHT22;18965;52.242;20.886;2023-06-05T03:51:12;12.50;64.50
32524;DHT22;18965;52.242;20.886;2023-06-05T03:53:38;12.60;64.60
32524;DHT22;18965;52.242;20.886;2023-06-05T03:56:08;12.70;64.60
32524;DHT22;18965;52.242;20.886;2023-06-05T03:58:34;12.80;64.70
32524;DHT22;18965;52.242;20.886;2023-06-05T04:01:00;12.90;64.80
32524;DHT22;18965;52.242;20.886;2023-06-05T04:03:26;13.00;64.90
32524;DHT22;18965;52.242;20.886;2023-06-05T04:05:53;13.20;65.00
32524;DHT22;18965;52.242;20.886;2023-06-05T04:08:18;13.20;65.10
32524;DHT22;18965;52.242;20.886;2023-06-05T04:10:44;13.30;65.20
32524;DHT22;18965;52.242;20.886;2023-06-05T04:13:10;13.50;65.10
32524;DHT22;18965;52.242;20.886;2023-06-05T04:15:36;13.60;65.20
32524;DHT22;18965;52.242;20.886;2023-06-05T04:18:02;13.70;65.10
32524;DHT22;18965;52.242;20.886;2023-06-05T04:20:28;13.80;65.10
32524;DHT22;18965;52.242;20.886;2023-06-05T04:22:54;14.00;64.70
32524;DHT22;18965;52.242;20.886;2023-06-05T04:25:19;14.10;64.20
32524;DHT22;18965;52.242;20.886;2023-06-05T04:27:46;14.20;63.90
32524;DHT22;18965;52.242;20.886;2023-06-05T04:30:14;14.30;63.40
32524;DHT22;18965;52.242;20.886;2023-06-05T04:32:40;14.40;62.90
32524;DHT22;18965;52.242;20.886;2023-06-05T04:35:08;14.60;62.60
32524;DHT22;18965;52.242;20.886;2023-06-05T04:37:37;14.70;62.10
32524;DHT22;18965;52.242;20.886;2023-06-05T04:40:04;14.80;62.10
32524;DHT22;18965;52.242;20.886;2023-06-05T04:42:36;14.90;61.70
32524;DHT22;18965;52.242;20.886;2023-06-05T04:45:03;15.10;61.50
32524;DHT22;18965;52.242;20.886;2023-06-05T04:47:30;15.10;61.10
32524;DHT22;18965;52.242;20.886;2023-06-05T04:50:01;15.30;60.70
32524;DHT22;18965;52.242;20.886;2023-06-05T04:52:30;15.50;60.60
32524;DHT22;18965;52.242;20.886;2023-06-05T04:54:55;15.60;60.10
32524;DHT22;18965;52.242;20.886;2023-06-05T04:57:23;15.70;60.10
32524;DHT22;18965;52.242;20.886;2023-06-05T04:59:51;15.90;59.70
32524;DHT22;18965;52.242;20.886;2023-06-05T05:02:17;16.00;59.20
32524;DHT22;18965;52.242;20.886;2023-06-05T05:04:43;16.30;59.00
32524;DHT22;18965;52.242;20.886;2023-06-05T05:07:09;16.60;58.70
32524;DHT22;18965;52.242;20.886;2023-06-05T05:09:40;16.80;58.10
32524;DHT22;18965;52.242;20.886;2023-06-05T05:12:06;17.00;57.70
32524;DHT22;18965;52.242;20.886;2023-06-05T05:14:32;17.10;56.90
32524;DHT22;18965;52.242;20.886;2023-06-05T05:16:59;17.30;56.60
32524;DHT22;18965;52.242;20.886;2023-06-05T05:19:27;17.60;56.20
32524;DHT22;18965;52.242;20.886;2023-06-05T05:21:53;17.70;55.20
32524;DHT22;18965;52.242;20.886;2023-06-05T05:24:18;17.80;54.80
32524;DHT22;18965;52.242;20.886;2023-06-05T05:26:44;18.00;54.60
32524;DHT22;18965;52.242;20.886;2023-06-05T05:29:10;18.10;54.10
32524;DHT22;18965;52.242;20.886;2023-06-05T05:31:36;18.30;53.70
32524;DHT22;18965;52.242;20.886;2023-06-05T05:34:02;18.50;53.40
32524;DHT22;18965;52.242;20.886;2023-06-05T05:36:28;18.60;53.40
32524;DHT22;18965;52.242;20.886;2023-06-05T05:38:54;18.70;53.20
32524;DHT22;18965;52.242;20.886;2023-06-05T05:41:20;18.90;52.90
32524;DHT22;18965;52.242;20.886;2023-06-05T05:43:48;19.00;52.30
32524;DHT22;18965;52.242;20.886;2023-06-05T05:46:14;19.20;52.20
32524;DHT22;18965;52.242;20.886;2023-06-05T05:48:40;19.30;52.10
32524;DHT22;18965;52.242;20.886;2023-06-05T05:51:06;19.40;51.80
32524;DHT22;18965;52.242;20.886;2023-06-05T05:53:33;19.50;51.80
32524;DHT22;18965;52.242;20.886;2023-06-05T05:56:00;19.70;51.70
32524;DHT22;18965;52.242;20.886;2023-06-05T05:58:26;19.80;51.30
32524;DHT22;18965;52.242;20.886;2023-06-05T06:00:51;19.90;51.10
32524;DHT22;18965;52.242;20.886;2023-06-05T06:03:18;20.10;50.80
32524;DHT22;18965;52.242;20.886;2023-06-05T06:05:44;20.30;50.70
32524;DHT22;18965;52.242;20.886;2023-06-05T06:08:12;20.60;49.90
32524;DHT22;18965;52.242;20.886;2023-06-05T06:10:40;20.80;49.00
32524;DHT22;18965;52.242;20.886;2023-06-05T06:13:05;21.00;48.60
32524;DHT22;18965;52.242;20.886;2023-06-05T06:15:32;21.30;49.00
32524;DHT22;18965;52.242;20.886;2023-06-05T06:17:58;21.80;49.00
32524;DHT22;18965;52.242;20.886;2023-06-05T06:20:25;22.10;48.40
32524;DHT22;18965;52.242;20.886;2023-06-05T06:22:52;22.30;47.90
32524;DHT22;18965;52.242;20.886;2023-06-05T06:25:20;22.70;47.40
32524;DHT22;18965;52.242;20.886;2023-06-05T06:27:47;23.40;46.40
32524;DHT22;18965;52.242;20.886;2023-06-05T06:30:18;24.50;45.90
32524;DHT22;18965;52.242;20.886;2023-06-05T06:32:45;25.40;45.40
32524;DHT22;18965;52.242;20.886;2023-06-05T06:35:11;26.40;43.90
32524;DHT22;18965;52.242;20.886;2023-06-05T06:37:39;27.90;41.60
32524;DHT22;18965;52.242;20.886;2023-06-05T06:40:06;29.70;38.00
32524;DHT22;18965;52.242;20.886;2023-06-05T06:42:35;31.50;34.70
32524;DHT22;18965;52.242;20.886;2023-06-05T06:45:01;32.80;31.90
32524;DHT22;18965;52.242;20.886;2023-06-05T06:47:27;33.00;30.30
32524;DHT22;18965;52.242;20.886;2023-06-05T06:49:53;32.50;29.70
32524;DHT22;18965;52.242;20.886;2023-06-05T06:52:19;31.80;29.80
32524;DHT22;18965;52.242;20.886;2023-06-05T06:54:46;31.10;29.90
32524;DHT22;18965;52.242;20.886;2023-06-05T06:57:12;30.40;29.60
32524;DHT22;18965;52.242;20.886;2023-06-05T06:59:38;29.70;30.00
32524;DHT22;18965;52.242;20.886;2023-06-05T07:02:17;29.10;30.50
32524;DHT22;18965;52.242;20.886;2023-06-05T07:04:43;28.50;30.70
32524;DHT22;18965;52.242;20.886;2023-06-05T07:07:10;28.00;31.00
32524;DHT22;18965;52.242;20.886;2023-06-05T07:09:40;27.60;31.20
32524;DHT22;18965;52.242;20.886;2023-06-05T07:12:08;27.20;31.40
32524;DHT22;18965;52.242;20.886;2023-06-05T07:14:34;26.80;31.90
32524;DHT22;18965;52.242;20.886;2023-06-05T07:17:01;26.50;32.40
32524;DHT22;18965;52.242;20.886;2023-06-05T07:19:31;26.30;32.20
32524;DHT22;18965;52.242;20.886;2023-06-05T07:21:58;26.10;32.50
32524;DHT22;18965;52.242;20.886;2023-06-05T07:24:25;25.90;32.50
32524;DHT22;18965;52.242;20.886;2023-06-05T07:26:55;25.70;32.60
32524;DHT22;18965;52.242;20.886;2023-06-05T07:29:22;25.50;33.00
32524;DHT22;18965;52.242;20.886;2023-06-05T07:31:52;25.40;33.20
32524;DHT22;18965;52.242;20.886;2023-06-05T07:34:18;25.30;33.40
32524;DHT22;18965;52.242;20.886;2023-06-05T07:36:45;25.10;31.90
32524;DHT22;18965;52.242;20.886;2023-06-05T07:39:12;25.00;31.90
32524;DHT22;18965;52.242;20.886;2023-06-05T07:41:38;24.70;31.30
32524;DHT22;18965;52.242;20.886;2023-06-05T07:44:10;24.60;32.30
32524;DHT22;18965;52.242;20.886;2023-06-05T07:46:36;24.60;32.90
32524;DHT22;18965;52.242;20.886;2023-06-05T07:49:02;24.50;33.10
32524;DHT22;18965;52.242;20.886;2023-06-05T07:51:31;24.50;33.50
32524;DHT22;18965;52.242;20.886;2023-06-05T07:54:09;24.50;33.60
32524;DHT22;18965;52.242;20.886;2023-06-05T07:56:59;24.40;33.00
32524;DHT22;18965;52.242;20.886;2023-06-05T07:59:25;24.30;33.20
32524;DHT22;18965;52.242;20.886;2023-06-05T08:01:56;24.20;33.10
32524;DHT22;18965;52.242;20.886;2023-06-05T08:04:22;24.20;33.10
32524;DHT22;18965;52.242;20.886;2023-06-05T08:06:53;24.20;33.70
32524;DHT22;18965;52.242;20.886;2023-06-05T08:09:18;24.10;33.60
32524;DHT22;18965;52.242;20.886;2023-06-05T08:11:44;24.10;33.80
32524;DHT22;18965;52.242;20.886;2023-06-05T08:14:13;24.00;33.70
32524;DHT22;18965;52.242;20.886;2023-06-05T08:16:38;24.00;33.70
32524;DHT22;18965;52.242;20.886;2023-06-05T08:19:04;24.00;33.50
32524;DHT22;18965;52.242;20.886;2023-06-05T08:21:30;24.00;33.40
32524;DHT22;18965;52.242;20.886;2023-06-05T08:23:56;24.00;33.70
32524;DHT22;18965;52.242;20.886;2023-06-05T08:26:21;24.00;33.80
32524;DHT22;18965;52.242;20.886;2023-06-05T08:28:48;23.90;33.30
32524;DHT22;18965;52.242;20.886;2023-06-05T08:31:14;23.90;33.40
32524;DHT22;18965;52.242;20.886;2023-06-05T08:33:42;23.80;33.40
32524;DHT22;18965;52.242;20.886;2023-06-05T08:36:08;23.80;33.10
32524;DHT22;18965;52.242;20.886;2023-06-05T08:38:36;23.80;33.40
32524;DHT22;18965;52.242;20.886;2023-06-05T08:41:04;23.80;33.50
32524;DHT22;18965;52.242;20.886;2023-06-05T08:43:39;23.80;33.70
32524;DHT22;18965;52.242;20.886;2023-06-05T08:46:12;23.80;33.80
32524;DHT22;18965;52.242;20.886;2023-06-05T08:48:42;23.90;33.70
32524;DHT22;18965;52.242;20.886;2023-06-05T08:51:10;23.90;33.60
32524;DHT22;18965;52.242;20.886;2023-06-05T08:54:05;23.90;33.00
32524;DHT22;18965;52.242;20.886;2023-06-05T08:56:35;23.90;33.20
32524;DHT22;18965;52.242;20.886;2023-06-05T08:59:04;23.90;33.10
32524;DHT22;18965;52.242;20.886;2023-06-05T09:02:13;23.80;32.80
32524;DHT22;18965;52.242;20.886;2023-06-05T09:04:20;23.80;32.40
32524;DHT22;18965;52.242;20.886;2023-06-05T09:06:46;23.80;32.80
32524;DHT22;18965;52.242;20.886;2023-06-05T09:09:17;23.80;33.10
32524;DHT22;18965;52.242;20.886;2023-06-05T09:11:43;23.80;33.70
32524;DHT22;18965;52.242;20.886;2023-06-05T09:14:09;23.80;33.60
32524;DHT22;18965;52.242;20.886;2023-06-05T09:16:40;23.90;33.70
32524;DHT22;18965;52.242;20.886;2023-06-05T09:19:08;23.90;33.20
32524;DHT22;18965;52.242;20.886;2023-06-05T09:21:35;23.90;33.10
32524;DHT22;18965;52.242;20.886;2023-06-05T09:24:10;23.90;33.10
32524;DHT22;18965;52.242;20.886;2023-06-05T09:29:32;23.90;32.70
32524;DHT22;18965;52.242;20.886;2023-06-05T09:32:03;23.90;33.30
32524;DHT22;18965;52.242;20.886;2023-06-05T09:34:34;23.80;32.70
32524;DHT22;18965;52.242;20.886;2023-06-05T09:37:08;23.90;32.60
32524;DHT22;18965;52.242;20.886;2023-06-05T09:39:37;23.80;33.10
32524;DHT22;18965;52.242;20.886;2023-06-05T09:42:03;23.90;33.30
32524;DHT22;18965;52.242;20.886;2023-06-05T09:44:30;23.90;33.30
32524;DHT22;18965;52.242;20.886;2023-06-05T09:47:00;23.80;33.20
32524;DHT22;18965;52.242;20.886;2023-06-05T09:49:30;23.90;33.40
32524;DHT22;18965;52.242;20.886;2023-06-05T09:51:57;23.90;33.00
32524;DHT22;18965;52.242;20.886;2023-06-05T09:54:26;23.90;32.60
32524;DHT22;18965;52.242;20.886;2023-06-05T09:56:59;23.90;31.80
32524;DHT22;18965;52.242;20.886;2023-06-05T09:59:28;23.90;31.80
32524;DHT22;18965;52.242;20.886;2023-06-05T10:02:01;23.80;31.80
32524;DHT22;18965;52.242;20.886;2023-06-05T10:04:42;23.80;31.30
32524;DHT22;18965;52.242;20.886;2023-06-05T10:07:19;23.80;31.40
32524;DHT22;18965;52.242;20.886;2023-06-05T10:09:49;23.80;32.20
32524;DHT22;18965;52.242;20.886;2023-06-05T10:12:16;23.80;32.70
32524;DHT22;18965;52.242;20.886;2023-06-05T10:14:43;23.80;33.10
32524;DHT22;18965;52.242;20.886;2023-06-05T10:17:11;23.80;32.60
32524;DHT22;18965;52.242;20.886;2023-06-05T10:19:43;23.90;32.50
32524;DHT22;18965;52.242;20.886;2023-06-05T10:22:09;23.90;32.90
32524;DHT22;18965;52.242;20.886;2023-06-05T10:24:39;23.90;32.80
32524;DHT22;18965;52.242;20.886;2023-06-05T10:35:19;24.00;32.90
32524;DHT22;18965;52.242;20.886;2023-06-05T10:41:00;24.10;33.20
32524;DHT22;18965;52.242;20.886;2023-06-05T10:43:52;24.10;33.10
32524;DHT22;18965;52.242;20.886;2023-06-05T10:46:31;24.10;33.20
32524;DHT22;18965;52.242;20.886;2023-06-05T10:49:11;24.10;31.90
32524;DHT22;18965;52.242;20.886;2023-06-05T10:51:49;24.10;31.70
32524;DHT22;18965;52.242;20.886;2023-06-05T10:57:06;24.10;31.40
32524;DHT22;18965;52.242;20.886;2023-06-05T10:59:34;24.00;32.30
32524;DHT22;18965;52.242;20.886;2023-06-05T11:17:47;24.20;32.50
32524;DHT22;18965;52.242;20.886;2023-06-05T11:25:30;24.30;32.90
32524;DHT22;18965;52.242;20.886;2023-06-05T11:28:06;24.30;32.30
32524;DHT22;18965;52.242;20.886;2023-06-05T11:30:44;24.30;31.80
32524;DHT22;18965;52.242;20.886;2023-06-05T11:33:16;24.30;31.60
32524;DHT22;18965;52.242;20.886;2023-06-05T11:35:50;24.40;31.40
32524;DHT22;18965;52.242;20.886;2023-06-05T11:38:21;24.40;31.00
32524;DHT22;18965;52.242;20.886;2023-06-05T11:40:48;24.30;31.20
32524;DHT22;18965;52.242;20.886;2023-06-05T11:43:14;24.30;31.50
32524;DHT22;18965;52.242;20.886;2023-06-05T11:46:03;24.40;31.70
32524;DHT22;18965;52.242;20.886;2023-06-05T11:48:49;24.40;31.20
32524;DHT22;18965;52.242;20.886;2023-06-05T11:51:15;24.40;31.50
32524;DHT22;18965;52.242;20.886;2023-06-05T11:53:45;24.50;32.00
32524;DHT22;18965;52.242;20.886;2023-06-05T11:56:13;24.50;32.10
32524;DHT22;18965;52.242;20.886;2023-06-05T11:58:41;24.50;32.20
32524;DHT22;18965;52.242;20.886;2023-06-05T12:01:14;24.60;32.30
32524;DHT22;18965;52.242;20.886;2023-06-05T12:03:44;24.60;32.70
32524;DHT22;18965;52.242;20.886;2023-06-05T12:06:11;24.60;33.10
32524;DHT22;18965;52.242;20.886;2023-06-05T12:08:41;24.70;32.70
32524;DHT22;18965;52.242;20.886;2023-06-05T12:11:22;24.70;32.90
32524;DHT22;18965;52.242;20.886;2023-06-05T12:13:50;24.70;32.50
32524;DHT22;18965;52.242;20.886;2023-06-05T12:16:17;24.70;31.60
32524;DHT22;18965;52.242;20.886;2023-06-05T12:18:44;24.70;31.20
32524;DHT22;18965;52.242;20.886;2023-06-05T12:21:31;24.70;30.80
32524;DHT22;18965;52.242;20.886;2023-06-05T12:24:04;24.70;31.20
32524;DHT22;18965;52.242;20.886;2023-06-05T12:26:47;24.70;31.70
32524;DHT22;18965;52.242;20.886;2023-06-05T12:29:15;24.80;31.60
32524;DHT22;18965;52.242;20.886;2023-06-05T12:31:42;24.80;31.80
32524;DHT22;18965;52.242;20.886;2023-06-05T12:34:07;24.80;32.30
32524;DHT22;18965;52.242;20.886;2023-06-05T12:36:40;24.90;31.70
32524;DHT22;18965;52.242;20.886;2023-06-05T12:39:14;24.90;31.60
32524;DHT22;18965;52.242;20.886;2023-06-05T12:41:43;24.90;31.70
32524;DHT22;18965;52.242;20.886;2023-06-05T12:44:10;24.90;31.40
32524;DHT22;18965;52.242;20.886;2023-06-05T12:46:36;24.90;31.10
32524;DHT22;18965;52.242;20.886;2023-06-05T12:49:03;25.00;31.20
32524;DHT22;18965;52.242;20.886;2023-06-05T12:51:33;25.00;31.20
32524;DHT22;18965;52.242;20.886;2023-06-05T12:54:02;24.90;31.10
32524;DHT22;18965;52.242;20.886;2023-06-05T12:59:04;24.90;30.60
32524;DHT22;18965;52.242;20.886;2023-06-05T13:01:30;24.90;30.70
32524;DHT22;18965;52.242;20.886;2023-06-05T13:03:56;24.90;30.00
32524;DHT22;18965;52.242;20.886;2023-06-05T13:06:25;24.90;30.00
32524;DHT22;18965;52.242;20.886;2023-06-05T13:08:51;24.90;30.00
32524;DHT22;18965;52.242;20.886;2023-06-05T13:11:17;24.90;29.70
32524;DHT22;18965;52.242;20.886;2023-06-05T13:13:43;24.90;30.00
32524;DHT22;18965;52.242;20.886;2023-06-05T13:16:11;25.00;29.80
32524;DHT22;18965;52.242;20.886;2023-06-05T13:18:37;25.00;29.50
32524;DHT22;18965;52.242;20.886;2023-06-05T13:21:03;25.00;29.50
32524;DHT22;18965;52.242;20.886;2023-06-05T13:23:30;25.00;29.60
32524;DHT22;18965;52.242;20.886;2023-06-05T13:26:02;25.00;30.00
32524;DHT22;18965;52.242;20.886;2023-06-05T13:28:29;25.00;30.10
32524;DHT22;18965;52.242;20.886;2023-06-05T13:30:55;25.00;30.20
32524;DHT22;18965;52.242;20.886;2023-06-05T13:33:24;25.00;30.00
32524;DHT22;18965;52.242;20.886;2023-06-05T13:35:56;25.00;30.60
32524;DHT22;18965;52.242;20.886;2023-06-05T13:38:22;25.00;31.00
32524;DHT22;18965;52.242;20.886;2023-06-05T13:40:53;25.00;31.10
32524;DHT22;18965;52.242;20.886;2023-06-05T13:43:19;25.00;31.50
32524;DHT22;18965;52.242;20.886;2023-06-05T13:45:45;25.00;31.30
32524;DHT22;18965;52.242;20.886;2023-06-05T13:48:10;25.00;32.00
32524;DHT22;18965;52.242;20.886;2023-06-05T13:50:45;25.00;31.30
32524;DHT22;18965;52.242;20.886;2023-06-05T13:53:11;25.00;31.70
32524;DHT22;18965;52.242;20.886;2023-06-05T13:55:37;25.10;31.80
32524;DHT22;18965;52.242;20.886;2023-06-05T13:58:05;25.10;31.80
32524;DHT22;18965;52.242;20.886;2023-06-05T14:00:33;25.10;31.90
32524;DHT22;18965;52.242;20.886;2023-06-05T14:02:59;25.10;32.10
32524;DHT22;18965;52.242;20.886;2023-06-05T14:05:28;25.00;32.30
32524;DHT22;18965;52.242;20.886;2023-06-05T14:07:55;25.00;32.50
32524;DHT22;18965;52.242;20.886;2023-06-05T14:10:24;24.90;32.30
32524;DHT22;18965;52.242;20.886;2023-06-05T14:13:01;24.90;32.10
32524;DHT22;18965;52.242;20.886;2023-06-05T14:15:27;24.90;32.00
32524;DHT22;18965;52.242;20.886;2023-06-05T14:17:55;24.90;32.10
32524;DHT22;18965;52.242;20.886;2023-06-05T14:20:21;24.90;32.30
32524;DHT22;18965;52.242;20.886;2023-06-05T14:22:47;24.90;32.00
32524;DHT22;18965;52.242;20.886;2023-06-05T14:25:40;24.90;31.70
32524;DHT22;18965;52.242;20.886;2023-06-05T14:28:06;24.90;31.70
32524;DHT22;18965;52.242;20.886;2023-06-05T14:34:18;24.90;31.50
32524;DHT22;18965;52.242;20.886;2023-06-05T14:36:45;25.00;32.00
32524;DHT22;18965;52.242;20.886;2023-06-05T14:39:17;25.00;31.80
32524;DHT22;18965;52.242;20.886;2023-06-05T14:41:43;25.00;31.50
32524;DHT22;18965;52.242;20.886;2023-06-05T14:44:09;25.00;31.90
32524;DHT22;18965;52.242;20.886;2023-06-05T14:46:34;25.00;31.50
32524;DHT22;18965;52.242;20.886;2023-06-05T14:49:00;25.10;31.00
32524;DHT22;18965;52.242;20.886;2023-06-05T14:51:26;25.10;30.90
32524;DHT22;18965;52.242;20.886;2023-06-05T14:53:52;25.10;30.70
32524;DHT22;18965;52.242;20.886;2023-06-05T14:56:17;25.20;30.60
32524;DHT22;18965;52.242;20.886;2023-06-05T14:58:43;25.20;30.50
32524;DHT22;18965;52.242;20.886;2023-06-05T15:01:09;25.20;30.80
32524;DHT22;18965;52.242;20.886;2023-06-05T15:03:35;25.20;30.90
32524;DHT22;18965;52.242;20.886;2023-06-05T15:06:00;25.20;31.10
32524;DHT22;18965;52.242;20.886;2023-06-05T15:08:26;25.20;30.90
32524;DHT22;18965;52.242;20.886;2023-06-05T15:10:52;25.20;30.80
32524;DHT22;18965;52.242;20.886;2023-06-05T15:13:17;25.20;30.80
32524;DHT22;18965;52.242;20.886;2023-06-05T15:15:45;25.20;30.80
32524;DHT22;18965;52.242;20.886;2023-06-05T15:18:10;25.20;31.00
32524;DHT22;18965;52.242;20.886;2023-06-05T15:20:36;25.10;31.20
32524;DHT22;18965;52.242;20.886;2023-06-05T15:23:04;25.10;31.30
32524;DHT22;18965;52.242;20.886;2023-06-05T15:25:30;25.10;31.20
32524;DHT22;18965;52.242;20.886;2023-06-05T15:27:59;25.10;32.10
32524;DHT22;18965;52.242;20.886;2023-06-05T15:30:25;25.10;31.50
32524;DHT22;18965;52.242;20.886;2023-06-05T15:32:51;25.00;31.20
32524;DHT22;18965;52.242;20.886;2023-06-05T15:35:19;25.00;31.10
32524;DHT22;18965;52.242;20.886;2023-06-05T15:37:45;25.00;31.00
32524;DHT22;18965;52.242;20.886;2023-06-05T15:40:11;24.90;31.10
32524;DHT22;18965;52.242;20.886;2023-06-05T15:42:37;24.90;31.10
32524;DHT22;18965;52.242;20.886;2023-06-05T15:45:08;24.90;31.00
32524;DHT22;18965;52.242;20.886;2023-06-05T15:47:35;24.80;30.30
32524;DHT22;18965;52.242;20.886;2023-06-05T15:50:02;24.80;30.00
32524;DHT22;18965;52.242;20.886;2023-06-05T15:52:35;24.80;30.30
32524;DHT22;18965;52.242;20.886;2023-06-05T15:55:01;24.80;30.80
32524;DHT22;18965;52.242;20.886;2023-06-05T15:57:27;24.90;30.20
32524;DHT22;18965;52.242;20.886;2023-06-05T15:59:56;24.90;30.40
32524;DHT22;18965;52.242;20.886;2023-06-05T16:02:22;24.90;30.30
32524;DHT22;18965;52.242;20.886;2023-06-05T16:04:48;24.90;30.30
32524;DHT22;18965;52.242;20.886;2023-06-05T16:07:17;24.90;30.30
32524;DHT22;18965;52.242;20.886;2023-06-05T16:09:43;24.90;29.90
32524;DHT22;18965;52.242;20.886;2023-06-05T16:12:09;24.90;29.60